createdAt,value
2023-02-15T00:01:20.888Z,20.07
2023-02-15T00:03:48.702Z,20.06
2023-02-15T00:06:15.033Z,20.07
2023-02-15T00:08:41.407Z,20.07
2023-02-15T00:11:08.224Z,20.08
2023-02-15T00:13:36.342Z,20.10
2023-02-15T00:16:03.510Z,20.10
2023-02-15T00:18:30.219Z,20.11
2023-02-15T00:20:56.536Z,20.12
2023-02-15T00:23:22.877Z,20.12
2023-02-15T00:25:49.228Z,20.12
2023-02-15T00:28:15.561Z,20.12
2023-02-15T00:30:41.935Z,20.09
2023-02-15T00:33:08.342Z,20.10
2023-02-15T00:35:34.659Z,20.08
2023-02-15T00:38:01.001Z,20.09
2023-02-15T00:40:27.325Z,20.09
2023-02-15T00:42:55.086Z,20.09
2023-02-15T00:45:22.227Z,20.11
2023-02-15T00:47:48.574Z,20.12
2023-02-15T00:50:15.265Z,20.12
2023-02-15T00:52:41.769Z,20.13
2023-02-15T00:55:08.124Z,20.12
2023-02-15T00:57:34.456Z,20.11
2023-02-15T01:00:00.788Z,20.09
2023-02-15T01:02:27.119Z,20.09
2023-02-15T01:04:53.543Z,20.08
2023-02-15T01:07:19.938Z,20.08
2023-02-15T01:09:46.262Z,20.05
2023-02-15T01:12:12.583Z,20.06
2023-02-15T01:14:38.902Z,20.06
2023-02-15T01:17:05.244Z,20.08
2023-02-15T01:19:35.233Z,20.08
2023-02-15T01:22:01.571Z,20.08
2023-02-15T01:24:27.896Z,20.09
2023-02-15T01:26:54.243Z,20.11
2023-02-15T01:29:20.568Z,20.11
2023-02-15T01:31:47.046Z,20.10
2023-02-15T01:34:14.447Z,20.09
2023-02-15T01:36:40.771Z,20.08
2023-02-15T01:39:08.721Z,20.07
2023-02-15T01:41:35.063Z,20.08
2023-02-15T01:44:02.167Z,20.06
2023-02-15T01:46:30.090Z,20.07
2023-02-15T01:49:01.286Z,20.06
2023-02-15T01:51:28.344Z,20.05
2023-02-15T01:53:59.293Z,20.05
2023-02-15T01:56:26.139Z,20.05
2023-02-15T01:58:53.387Z,20.05
2023-02-15T02:01:19.793Z,20.07
2023-02-15T02:04:04.896Z,20.07
2023-02-15T02:06:31.613Z,20.08
2023-02-15T02:08:57.934Z,20.08
2023-02-15T02:11:24.771Z,20.07
2023-02-15T02:13:51.326Z,20.08
2023-02-15T02:16:23.678Z,20.07
2023-02-15T02:19:08.761Z,20.06
2023-02-15T02:21:55.374Z,20.06
2023-02-15T02:24:40.488Z,20.05
2023-02-15T02:27:23.903Z,20.04
2023-02-15T02:30:02.499Z,20.03
2023-02-15T02:32:32.568Z,20.04
2023-02-15T02:35:02.434Z,20.02
2023-02-15T02:37:31.784Z,20.02
2023-02-15T02:40:01.950Z,20.05
2023-02-15T02:42:36.243Z,20.05
2023-02-15T02:45:14.410Z,20.06
2023-02-15T02:47:56.273Z,20.05
2023-02-15T02:50:23.787Z,20.06
2023-02-15T02:52:50.821Z,20.05
2023-02-15T02:55:22.151Z,20.05
2023-02-15T02:58:15.097Z,20.03
2023-02-15T03:00:45.499Z,20.02
2023-02-15T03:03:17.792Z,20.01
2023-02-15T03:05:45.449Z,20.02
2023-02-15T03:08:13.130Z,20.02
2023-02-15T03:10:40.690Z,20.02
2023-02-15T03:13:07.061Z,20.02
2023-02-15T03:15:56.519Z,20.03
2023-02-15T03:18:23.700Z,20.04
2023-02-15T03:20:50.035Z,20.04
2023-02-15T03:23:17.945Z,20.04
2023-02-15T03:25:45.069Z,20.04
2023-02-15T03:28:16.584Z,20.04
2023-02-15T03:30:43.194Z,20.03
2023-02-15T03:33:09.548Z,20.02
2023-02-15T03:35:46.468Z,20.02
2023-02-15T03:38:12.812Z,20.02
2023-02-15T03:40:57.965Z,20.01
2023-02-15T03:43:24.232Z,20.02
2023-02-15T03:45:57.622Z,20.04
2023-02-15T03:48:34.405Z,20.05
2023-02-15T03:51:20.618Z,20.06
2023-02-15T03:53:46.953Z,20.05
2023-02-15T03:56:13.272Z,20.06
2023-02-15T03:58:58.462Z,20.07
2023-02-15T04:01:45.508Z,20.09
2023-02-15T04:04:22.276Z,20.07
2023-02-15T04:06:49.508Z,20.07
2023-02-15T04:09:34.694Z,20.08
2023-02-15T04:12:01.048Z,20.09
2023-02-15T04:14:45.848Z,20.08
2023-02-15T04:17:12.379Z,20.07
2023-02-15T04:19:57.473Z,20.04
2023-02-15T04:22:42.270Z,20.05
2023-02-15T04:25:14.548Z,20.04
2023-02-15T04:27:41.706Z,20.05
2023-02-15T04:30:08.405Z,20.05
2023-02-15T04:32:35.168Z,20.05
2023-02-15T04:35:01.522Z,20.06
2023-02-15T04:37:27.859Z,20.07
2023-02-15T04:39:54.170Z,20.07
2023-02-15T04:42:20.500Z,20.07
2023-02-15T04:44:46.905Z,20.07
2023-02-15T04:47:13.237Z,20.08
2023-02-15T04:49:39.555Z,20.08
2023-02-15T04:52:05.899Z,20.07
2023-02-15T04:54:32.262Z,20.07
2023-02-15T04:56:58.571Z,20.07
2023-02-15T04:59:24.892Z,20.05
2023-02-15T05:01:51.215Z,20.06
2023-02-15T05:04:17.609Z,20.06
2023-02-15T05:06:43.960Z,20.07
2023-02-15T05:09:11.542Z,20.06
2023-02-15T05:11:37.852Z,20.08
2023-02-15T05:14:04.192Z,20.06
2023-02-15T05:16:30.567Z,20.08
2023-02-15T05:18:56.914Z,20.07
2023-02-15T05:21:23.240Z,20.06
2023-02-15T05:23:49.564Z,20.07
2023-02-15T05:26:38.386Z,20.07
2023-02-15T05:29:04.718Z,20.07
2023-02-15T05:31:31.376Z,20.07
2023-02-15T05:33:58.033Z,20.07
2023-02-15T05:36:24.360Z,20.08
2023-02-15T05:38:50.693Z,20.08
2023-02-15T05:41:17.010Z,20.15
2023-02-15T05:43:43.318Z,20.15
2023-02-15T05:46:09.671Z,20.15
2023-02-15T05:48:36.024Z,20.21
2023-02-15T05:51:03.518Z,20.26
2023-02-15T05:53:30.013Z,19.33
2023-02-15T05:56:00.288Z,17.95
2023-02-15T05:58:27.569Z,18.76
2023-02-15T06:00:54.152Z,19.30
2023-02-15T06:03:20.551Z,19.61
2023-02-15T06:05:46.993Z,19.79
2023-02-15T06:08:13.343Z,19.87
2023-02-15T06:10:41.005Z,19.92
2023-02-15T06:13:07.363Z,19.94
2023-02-15T06:15:33.716Z,19.96
2023-02-15T06:18:00.063Z,19.98
2023-02-15T06:20:26.390Z,19.98
2023-02-15T06:22:52.730Z,19.99
2023-02-15T06:25:19.629Z,20.01
2023-02-15T06:27:45.978Z,20.01
2023-02-15T06:30:12.536Z,20.01
2023-02-15T06:32:38.900Z,20.01
2023-02-15T06:35:05.316Z,20.01
2023-02-15T06:37:31.688Z,20.05
2023-02-15T06:39:58.013Z,20.04
2023-02-15T06:42:24.562Z,20.05
2023-02-15T06:44:50.905Z,20.06
2023-02-15T06:47:17.230Z,20.07
2023-02-15T06:49:43.561Z,20.08
2023-02-15T06:52:09.892Z,20.06
2023-02-15T06:54:36.238Z,20.05
2023-02-15T06:57:02.558Z,20.04
2023-02-15T06:59:28.894Z,20.05
2023-02-15T07:01:55.266Z,20.04
2023-02-15T07:04:21.694Z,20.05
2023-02-15T07:06:48.023Z,20.05
2023-02-15T07:09:14.379Z,20.06
2023-02-15T07:11:59.482Z,20.08
2023-02-15T07:14:27.634Z,20.09
2023-02-15T07:16:55.548Z,17.99
2023-02-15T07:19:21.910Z,17.00
2023-02-15T07:21:48.244Z,16.81
2023-02-15T07:24:14.641Z,16.61
2023-02-15T07:26:40.959Z,16.20
2023-02-15T07:29:07.300Z,16.22
2023-02-15T07:31:33.657Z,16.14
2023-02-15T07:33:59.996Z,16.51
2023-02-15T07:36:26.372Z,17.35
2023-02-15T07:38:52.698Z,18.05
2023-02-15T07:41:19.012Z,18.63
2023-02-15T07:43:45.505Z,18.86
2023-02-15T07:46:15.661Z,19.01
2023-02-15T07:48:42.184Z,19.10
2023-02-15T07:51:08.925Z,19.14
2023-02-15T07:53:35.718Z,19.21
2023-02-15T07:56:02.805Z,19.24
2023-02-15T07:58:47.818Z,19.17
2023-02-15T08:01:14.574Z,19.17
2023-02-15T08:03:41.041Z,19.20
2023-02-15T08:06:07.493Z,19.24
2023-02-15T08:08:37.049Z,19.25
2023-02-15T08:11:22.895Z,19.31
2023-02-15T08:13:56.029Z,19.41
2023-02-15T08:16:28.555Z,19.50
2023-02-15T08:18:54.912Z,19.56
2023-02-15T08:21:23.302Z,19.38
2023-02-15T08:23:51.580Z,19.04
2023-02-15T08:26:18.595Z,17.91
2023-02-15T08:28:45.315Z,17.73
2023-02-15T08:31:12.214Z,18.33
2023-02-15T08:33:39.059Z,18.90
2023-02-15T08:36:06.052Z,19.20
2023-02-15T08:38:33.594Z,19.33
2023-02-15T08:41:32.380Z,19.40
2023-02-15T08:43:59.523Z,19.46
2023-02-15T08:46:26.602Z,19.50
2023-02-15T08:48:52.928Z,19.53
2023-02-15T08:51:20.042Z,19.54
2023-02-15T08:53:47.316Z,19.54
2023-02-15T08:56:13.652Z,19.58
2023-02-15T08:58:40.000Z,19.62
2023-02-15T09:01:09.979Z,19.63
2023-02-15T09:03:36.364Z,19.65
2023-02-15T09:06:02.742Z,19.68
2023-02-15T09:08:29.092Z,19.70
2023-02-15T09:10:55.437Z,19.74
2023-02-15T09:13:21.782Z,19.75
2023-02-15T09:15:48.156Z,19.74
2023-02-15T09:18:17.968Z,19.75
2023-02-15T09:20:45.358Z,19.76
2023-02-15T09:23:21.911Z,19.77
2023-02-15T09:25:53.031Z,19.77
2023-02-15T09:28:19.391Z,19.76
2023-02-15T09:30:45.802Z,19.77
2023-02-15T09:33:12.196Z,19.77
2023-02-15T09:35:38.519Z,19.79
2023-02-15T09:38:04.853Z,19.80
2023-02-15T09:40:32.400Z,19.80
2023-02-15T09:43:18.913Z,19.83
2023-02-15T09:45:52.452Z,19.84
2023-02-15T09:48:22.666Z,19.87
2023-02-15T09:50:51.646Z,19.88
2023-02-15T09:53:27.001Z,19.98
2023-02-15T09:55:59.767Z,19.98
2023-02-15T09:58:32.255Z,19.95
2023-02-15T10:01:11.187Z,19.91
2023-02-15T10:03:40.629Z,19.92
2023-02-15T10:06:06.916Z,19.90
2023-02-15T10:08:39.943Z,19.91
2023-02-15T10:11:35.283Z,19.95
2023-02-15T10:14:09.093Z,19.94
2023-02-15T10:16:35.442Z,19.97
2023-02-15T10:19:04.578Z,19.97
2023-02-15T10:21:40.254Z,19.98
2023-02-15T10:24:14.817Z,19.99
2023-02-15T10:26:45.091Z,20.00
2023-02-15T10:29:21.276Z,20.05
2023-02-15T10:31:51.882Z,20.26
2023-02-15T10:34:23.262Z,20.20
2023-02-15T10:36:54.076Z,20.25
2023-02-15T10:39:24.121Z,20.29
2023-02-15T10:42:00.568Z,20.37
2023-02-15T10:44:30.783Z,20.41
2023-02-15T10:47:06.093Z,20.42
2023-02-15T10:49:44.621Z,20.39
2023-02-15T10:52:15.307Z,20.42
2023-02-15T10:54:41.615Z,20.28
2023-02-15T10:57:12.140Z,20.21
2023-02-15T10:59:38.409Z,20.18
2023-02-15T11:02:08.757Z,20.16
2023-02-15T11:04:52.329Z,20.28
2023-02-15T11:07:24.139Z,20.28
2023-02-15T11:09:51.872Z,20.27
2023-02-15T11:12:19.896Z,20.18
2023-02-15T11:15:05.428Z,20.18
2023-02-15T11:17:36.372Z,20.16
2023-02-15T11:20:21.521Z,20.19
2023-02-15T11:22:48.530Z,20.21
2023-02-15T11:25:29.610Z,20.17
2023-02-15T11:27:55.924Z,20.20
2023-02-15T11:30:23.229Z,20.20
2023-02-15T11:32:51.120Z,20.19
2023-02-15T11:35:25.651Z,20.19
2023-02-15T11:37:54.144Z,20.21
2023-02-15T11:40:23.075Z,20.21
2023-02-15T11:42:52.427Z,20.15
2023-02-15T11:45:20.966Z,20.15
2023-02-15T11:47:47.297Z,20.15
2023-02-15T11:50:18.779Z,20.18
2023-02-15T11:52:45.096Z,20.19
2023-02-15T11:55:15.504Z,20.21
2023-02-15T11:57:43.093Z,20.21
2023-02-15T12:00:15.604Z,20.21
2023-02-15T12:02:43.325Z,20.21
2023-02-15T12:05:13.284Z,20.22
2023-02-15T12:07:44.418Z,20.23
2023-02-15T12:10:14.956Z,20.23
2023-02-15T12:12:41.296Z,20.23
2023-02-15T12:15:08.271Z,20.22
2023-02-15T12:17:41.617Z,20.24
2023-02-15T12:20:14.005Z,20.25
2023-02-15T12:22:40.334Z,20.27
2023-02-15T12:25:25.740Z,20.26
2023-02-15T12:27:52.080Z,20.28
2023-02-15T12:30:22.399Z,20.30
2023-02-15T12:32:55.829Z,20.29
2023-02-15T12:35:31.692Z,20.29
2023-02-15T12:38:01.232Z,20.28
2023-02-15T12:40:31.266Z,20.28
2023-02-15T12:42:58.617Z,20.28
2023-02-15T12:45:30.351Z,20.28
2023-02-15T12:48:17.904Z,20.30
2023-02-15T12:50:45.235Z,20.28
2023-02-15T12:53:27.236Z,20.29
2023-02-15T12:56:03.764Z,20.30
2023-02-15T12:58:36.751Z,20.29
2023-02-15T13:01:16.591Z,20.29
2023-02-15T13:03:56.275Z,20.28
2023-02-15T13:06:22.605Z,20.29
2023-02-15T13:08:50.082Z,20.27
2023-02-15T13:11:21.129Z,20.29
2023-02-15T13:13:57.172Z,20.29
2023-02-15T13:16:31.600Z,20.29
2023-02-15T13:18:57.933Z,20.29
2023-02-15T13:21:33.114Z,20.29
2023-02-15T13:24:01.241Z,20.29
2023-02-15T13:26:27.668Z,20.28
2023-02-15T13:28:55.359Z,20.28
2023-02-15T13:31:22.128Z,20.29
2023-02-15T13:33:59.079Z,20.29
2023-02-15T13:36:30.753Z,20.28
2023-02-15T13:39:04.972Z,20.27
2023-02-15T13:41:36.722Z,20.27
2023-02-15T13:44:10.555Z,20.28
2023-02-15T13:46:43.752Z,20.27
2023-02-15T13:49:13.850Z,20.26
2023-02-15T13:51:42.752Z,20.28
2023-02-15T13:54:27.955Z,20.27
2023-02-15T13:57:13.149Z,20.26
2023-02-15T13:59:59.752Z,20.26
2023-02-15T14:02:37.661Z,20.25
2023-02-15T14:05:07.719Z,20.25
2023-02-15T14:07:52.631Z,20.24
2023-02-15T14:10:39.429Z,20.25
2023-02-15T14:13:18.436Z,20.24
2023-02-15T14:16:08.085Z,20.25
2023-02-15T14:18:42.220Z,20.23
2023-02-15T14:21:15.338Z,20.24
2023-02-15T14:24:00.509Z,20.24
2023-02-15T14:26:59.243Z,20.24
2023-02-15T14:29:25.557Z,20.23
2023-02-15T14:31:54.326Z,20.23
2023-02-15T14:34:23.064Z,20.23
2023-02-15T14:36:50.468Z,20.23
2023-02-15T14:39:54.289Z,20.21
2023-02-15T14:42:37.768Z,20.21
2023-02-15T14:45:21.206Z,20.20
2023-02-15T14:47:49.894Z,20.20
2023-02-15T14:50:31.437Z,20.20
2023-02-15T14:53:16.197Z,20.20
2023-02-15T14:55:42.525Z,20.19
2023-02-15T14:58:11.836Z,20.17
2023-02-15T15:00:39.126Z,20.15
2023-02-15T15:03:12.709Z,20.16
2023-02-15T15:05:47.252Z,20.16
2023-02-15T15:08:22.611Z,20.16
2023-02-15T15:10:49.622Z,20.17
2023-02-15T15:13:31.146Z,20.15
2023-02-15T15:15:57.597Z,20.14
2023-02-15T15:18:42.817Z,20.15
2023-02-15T15:21:09.238Z,20.14
2023-02-15T15:23:42.629Z,20.14
2023-02-15T15:26:22.753Z,20.14
2023-02-15T15:28:48.998Z,20.13
2023-02-15T15:31:19.948Z,20.11
2023-02-15T15:33:51.741Z,20.12
2023-02-15T15:36:23.999Z,20.11
2023-02-15T15:39:09.332Z,20.09
2023-02-15T15:41:45.431Z,20.10
2023-02-15T15:44:29.840Z,20.08
2023-02-15T15:47:00.027Z,20.08
2023-02-15T15:49:28.524Z,20.08
2023-02-15T15:51:55.096Z,20.08
2023-02-15T15:54:22.033Z,20.06
2023-02-15T15:56:49.564Z,20.06
2023-02-15T15:59:23.291Z,20.05
2023-02-15T16:01:49.756Z,20.04
2023-02-15T16:04:26.881Z,20.04
2023-02-15T16:06:53.226Z,20.04
2023-02-15T16:09:20.461Z,20.02
2023-02-15T16:11:47.655Z,20.01
2023-02-15T16:14:15.134Z,20.01
2023-02-15T16:16:41.526Z,20.00
2023-02-15T16:19:15.716Z,20.00
2023-02-15T16:21:42.035Z,19.99
2023-02-15T16:24:15.128Z,20.00
2023-02-15T16:26:47.387Z,20.00
2023-02-15T16:29:16.934Z,20.01
2023-02-15T16:31:43.412Z,20.02
2023-02-15T16:34:18.861Z,20.03
2023-02-15T16:36:45.185Z,20.03
2023-02-15T16:39:17.851Z,20.05
2023-02-15T16:41:46.949Z,20.04
2023-02-15T16:44:15.885Z,20.07
2023-02-15T16:46:43.010Z,20.06
2023-02-15T16:49:15.433Z,20.08
2023-02-15T16:51:42.102Z,20.06
2023-02-15T16:54:08.727Z,20.07
2023-02-15T16:56:35.108Z,20.05
2023-02-15T16:59:01.466Z,20.06
2023-02-15T17:01:29.120Z,20.06
2023-02-15T17:04:14.161Z,20.05
2023-02-15T17:06:40.534Z,20.06
2023-02-15T17:09:07.282Z,20.05
2023-02-15T17:11:34.444Z,20.02
2023-02-15T17:14:07.639Z,20.11
2023-02-15T17:16:37.335Z,20.13
2023-02-15T17:19:08.699Z,20.15
2023-02-15T17:21:37.623Z,20.23
2023-02-15T17:24:05.110Z,20.26
2023-02-15T17:26:32.297Z,20.21
2023-02-15T17:28:59.313Z,20.18
2023-02-15T17:31:29.362Z,20.17
2023-02-15T17:33:57.450Z,20.17
2023-02-15T17:36:24.524Z,20.19
2023-02-15T17:39:12.221Z,20.20
2023-02-15T17:41:38.705Z,20.21
2023-02-15T17:44:05.077Z,20.24
2023-02-15T17:46:35.487Z,20.24
2023-02-15T17:49:02.012Z,20.25
2023-02-15T17:51:28.346Z,20.28
2023-02-15T17:54:13.459Z,20.28
2023-02-15T17:56:39.828Z,20.29
2023-02-15T17:59:07.594Z,20.29
2023-02-15T18:01:55.868Z,20.30
2023-02-15T18:04:40.690Z,20.30
2023-02-15T18:07:27.687Z,20.31
2023-02-15T18:10:12.527Z,20.31
2023-02-15T18:12:39.158Z,20.33
2023-02-15T18:15:05.868Z,20.34
2023-02-15T18:17:45.312Z,20.35
2023-02-15T18:20:21.803Z,20.36
2023-02-15T18:22:48.139Z,20.35
2023-02-15T18:25:14.857Z,20.34
2023-02-15T18:27:41.184Z,20.36
2023-02-15T18:30:08.439Z,20.35
2023-02-15T18:32:35.710Z,20.35
2023-02-15T18:35:02.049Z,20.35
2023-02-15T18:37:30.231Z,20.35
2023-02-15T18:39:56.620Z,20.36
2023-02-15T18:42:31.502Z,20.36
2023-02-15T18:44:58.439Z,20.39
2023-02-15T18:47:24.765Z,20.38
2023-02-15T18:49:51.085Z,20.37
2023-02-15T18:52:17.918Z,20.37
2023-02-15T18:54:44.899Z,20.36
2023-02-15T18:57:12.982Z,20.36
2023-02-15T18:59:39.307Z,20.36
2023-02-15T19:02:11.024Z,20.36
2023-02-15T19:04:37.371Z,20.36
2023-02-15T19:07:03.712Z,20.36
2023-02-15T19:09:30.084Z,20.36
2023-02-15T19:11:56.462Z,20.39
2023-02-15T19:14:29.658Z,20.39
2023-02-15T19:16:56.435Z,20.42
2023-02-15T19:19:22.839Z,20.42
2023-02-15T19:21:49.306Z,20.42
2023-02-15T19:24:19.148Z,20.41
2023-02-15T19:26:46.198Z,20.41
2023-02-15T19:29:13.500Z,20.40
2023-02-15T19:31:40.018Z,20.22
2023-02-15T19:34:11.149Z,20.32
2023-02-15T19:36:37.485Z,20.45
2023-02-15T19:39:03.829Z,20.44
2023-02-15T19:41:30.808Z,20.44
2023-02-15T19:43:57.169Z,20.42
2023-02-15T19:46:23.595Z,20.40
2023-02-15T19:48:51.091Z,19.95
2023-02-15T19:51:17.499Z,20.04
2023-02-15T19:53:43.843Z,20.19
2023-02-15T19:56:11.063Z,20.26
2023-02-15T19:58:37.393Z,20.30
2023-02-15T20:01:04.110Z,20.33
2023-02-15T20:03:30.701Z,20.34
2023-02-15T20:05:57.023Z,20.35
2023-02-15T20:08:23.431Z,20.35
2023-02-15T20:10:49.868Z,20.35
2023-02-15T20:13:16.458Z,20.36
2023-02-15T20:15:42.909Z,20.38
2023-02-15T20:18:09.319Z,20.37
2023-02-15T20:20:45.671Z,20.35
2023-02-15T20:23:18.591Z,20.36
2023-02-15T20:25:44.923Z,20.36
2023-02-15T20:28:14.855Z,20.34
2023-02-15T20:30:41.199Z,20.35
2023-02-15T20:33:07.610Z,20.34
2023-02-15T20:35:33.955Z,20.32
2023-02-15T20:38:01.129Z,20.32
2023-02-15T20:40:28.064Z,20.32
2023-02-15T20:42:54.407Z,20.32
2023-02-15T20:45:21.475Z,20.32
2023-02-15T20:47:50.683Z,20.33
2023-02-15T20:50:20.744Z,20.33
2023-02-15T20:52:47.188Z,20.34
2023-02-15T20:55:14.200Z,20.33
2023-02-15T20:57:40.529Z,20.32
2023-02-15T21:00:08.583Z,20.30
2023-02-15T21:02:34.908Z,20.30
2023-02-15T21:05:01.828Z,20.29
2023-02-15T21:07:28.205Z,20.28
2023-02-15T21:09:54.526Z,20.28
2023-02-15T21:12:22.082Z,20.28
2023-02-15T21:14:48.572Z,20.29
2023-02-15T21:17:15.103Z,20.29
2023-02-15T21:19:41.586Z,20.29
2023-02-15T21:22:10.437Z,20.29
2023-02-15T21:24:36.768Z,20.28
2023-02-15T21:27:03.470Z,20.30
2023-02-15T21:29:29.891Z,20.30
2023-02-15T21:31:58.368Z,20.29
2023-02-15T21:34:24.852Z,20.32
2023-02-15T21:36:51.230Z,20.33
2023-02-15T21:39:24.055Z,20.34
2023-02-15T21:42:09.310Z,20.35
2023-02-15T21:44:54.156Z,20.33
2023-02-15T21:47:40.038Z,20.34
2023-02-15T21:50:26.790Z,20.30
2023-02-15T21:52:53.232Z,20.29
2023-02-15T21:55:19.563Z,20.28
2023-02-15T21:57:45.885Z,20.20
2023-02-15T22:00:16.701Z,20.22
2023-02-15T22:02:43.257Z,20.23
2023-02-15T22:05:12.960Z,20.22
2023-02-15T22:07:39.285Z,20.22
2023-02-15T22:10:05.879Z,20.20
2023-02-15T22:12:32.219Z,20.19
2023-02-15T22:14:58.623Z,20.18
2023-02-15T22:17:25.746Z,20.16
2023-02-15T22:19:52.108Z,20.15
2023-02-15T22:22:18.455Z,20.15
2023-02-15T22:24:44.793Z,20.12
2023-02-15T22:27:31.475Z,20.11
2023-02-15T22:29:57.804Z,20.08
2023-02-15T22:32:25.058Z,20.08
2023-02-15T22:34:51.597Z,20.09
2023-02-15T22:37:17.956Z,20.08
2023-02-15T22:39:44.294Z,20.07
2023-02-15T22:42:16.960Z,20.06
2023-02-15T22:44:43.288Z,20.04
2023-02-15T22:47:10.752Z,20.03
2023-02-15T22:49:37.181Z,20.03
2023-02-15T22:52:05.771Z,20.02
2023-02-15T22:54:32.108Z,20.01
2023-02-15T22:56:58.443Z,20.00
2023-02-15T22:59:31.968Z,20.00
2023-02-15T23:01:58.334Z,19.99
2023-02-15T23:04:25.298Z,19.97
2023-02-15T23:06:53.249Z,19.97
2023-02-15T23:09:19.682Z,19.96
2023-02-15T23:11:46.193Z,19.96
2023-02-15T23:14:29.077Z,19.94
2023-02-15T23:16:55.483Z,19.93
2023-02-15T23:19:21.840Z,19.93
2023-02-15T23:21:48.196Z,19.92
2023-02-15T23:24:18.354Z,19.93
2023-02-15T23:26:44.799Z,19.90
2023-02-15T23:29:20.712Z,19.90
2023-02-15T23:31:48.137Z,19.89
2023-02-15T23:34:19.630Z,19.87
2023-02-15T23:36:45.962Z,19.88
2023-02-15T23:39:34.658Z,19.88
2023-02-15T23:42:01.810Z,19.89
2023-02-15T23:44:28.141Z,19.88
2023-02-15T23:46:56.396Z,19.88
2023-02-15T23:49:22.845Z,19.89
2023-02-15T23:51:49.936Z,19.92
2023-02-15T23:54:16.701Z,19.92
2023-02-15T23:56:43.162Z,19.95
2023-02-15T23:59:12.156Z,19.95
